Time;durP1;ratioP1;P1;durP2;ratioP2;P2;SDS_P1;SDS_P2;PMS_P1;PMS_P2;Temp;Humidity;BMP_temperature;BMP_pressure;BME280_temperature;BME280_humidity;BME280_pressure;Samples;Min_cycle;Max_cycle;Signal;HPM_P1;HPM_P2
2021/05/09 00:00:11;;;;;;;3.40;3.10;;;;;;;11.97;41.46;100792.19;688795;28;23490;-65
2021/05/09 00:00:32;;;;;;;3.50;3.20;;;;;;;11.97;41.40;100798.44;684804;28;115362;-65
2021/05/09 00:00:53;;;;;;;3.40;3.10;;;;;;;11.96;41.42;100801.31;687643;28;46305;-66
2021/05/09 00:01:15;;;;;;;3.20;3.00;;;;;;;11.96;41.79;100802.19;687742;28;24380;-66
2021/05/09 00:01:36;;;;;;;3.42;3.17;;;;;;;11.96;41.90;100796.78;687648;28;23207;-65
2021/05/09 00:01:58;;;;;;;3.30;3.10;;;;;;;11.96;41.34;100795.91;688646;28;8596;-65
2021/05/09 00:02:19;;;;;;;3.13;2.92;;;;;;;11.96;41.55;100795.91;687346;28;45255;-66
2021/05/09 00:02:40;;;;;;;3.50;3.20;;;;;;;11.96;41.25;100798.63;688792;28;22564;-65
2021/05/09 00:03:02;;;;;;;3.42;3.13;;;;;;;11.96;41.52;100795.91;688353;28;30090;-64
2021/05/09 00:03:23;;;;;;;3.40;3.03;;;;;;;11.96;41.29;100794.06;688775;28;14719;-66
2021/05/09 00:03:44;;;;;;;3.40;3.10;;;;;;;11.96;41.73;100791.34;688796;28;22422;-65
2021/05/09 00:04:05;;;;;;;3.35;3.15;;;;;;;11.96;41.17;100794.06;688226;28;21544;-66
2021/05/09 00:04:27;;;;;;;3.40;3.20;;;;;;;11.95;41.17;100805.06;691372;28;22406;-65
2021/05/09 00:04:48;;;;;;;3.15;2.95;;;;;;;11.95;41.31;100796.94;689971;28;45154;-65
2021/05/09 00:05:10;;;;;;;3.33;3.03;;;;;;;11.94;41.56;100801.50;690439;28;23383;-66
2021/05/09 00:05:31;;;;;;;3.50;3.20;;;;;;;11.94;41.35;100797.97;685944;28;46013;-67
2021/05/09 00:05:53;;;;;;;3.35;3.05;;;;;;;11.94;41.49;100798.78;686969;28;21536;-65
2021/05/09 00:06:15;;;;;;;3.40;3.20;;;;;;;11.95;41.74;100795.06;685472;28;56374;-65
2021/05/09 00:06:36;;;;;;;3.38;3.08;;;;;;;11.95;42.27;100794.25;686819;28;23085;-64
2021/05/09 00:06:58;;;;;;;3.50;3.20;;;;;;;11.95;41.87;100795.06;687255;28;14674;-66
2021/05/09 00:07:19;;;;;;;3.55;3.25;;;;;;;11.96;41.75;100794.06;686656;28;43073;-66
2021/05/09 00:07:41;;;;;;;3.50;3.20;;;;;;;11.95;41.66;100795.06;688542;28;22400;-65
2021/05/09 00:08:02;;;;;;;3.25;3.03;;;;;;;11.96;41.84;100793.19;687861;28;44074;-65
2021/05/09 00:08:23;;;;;;;3.40;3.10;;;;;;;11.96;41.84;100787.78;688969;28;16640;-65
2021/05/09 00:08:44;;;;;;;3.22;3.03;;;;;;;11.96;41.34;100795.91;689085;28;9218;-65
2021/05/09 00:09:06;;;;;;;3.67;3.38;;;;;;;11.97;41.67;100789.47;688731;28;14743;-66
2021/05/09 00:09:27;;;;;;;3.60;3.30;;;;;;;11.97;41.60;100794.88;686790;28;47205;-65
2021/05/09 00:09:48;;;;;;;3.33;3.13;;;;;;;11.96;41.12;100787.78;688227;28;23751;-65
2021/05/09 00:10:10;;;;;;;13.88;3.20;;;;;;;11.96;40.91;100793.19;688313;28;21335;-66
2021/05/09 00:10:32;;;;;;;10.40;3.15;;;;;;;11.96;41.29;100790.50;687863;28;46424;-66
2021/05/09 00:10:53;;;;;;;3.42;3.20;;;;;;;11.94;41.27;100785.25;688806;28;16614;-65
2021/05/09 00:11:15;;;;;;;3.38;3.08;;;;;;;11.94;41.27;100787.97;688678;28;22205;-66
2021/05/09 00:11:36;;;;;;;3.50;3.20;;;;;;;11.93;41.35;100783.59;686384;28;68379;-66
2021/05/09 00:11:57;;;;;;;3.60;3.30;;;;;;;11.93;41.37;100780.91;688703;28;22383;-66
2021/05/09 00:12:18;;;;;;;3.45;3.22;;;;;;;11.92;41.16;100786.47;687960;28;21193;-66
2021/05/09 00:12:40;;;;;;;3.58;3.28;;;;;;;11.94;41.32;100784.44;688646;28;23490;-65
2021/05/09 00:13:01;;;;;;;3.58;3.28;;;;;;;11.93;41.27;100783.59;688760;28;23386;-65
2021/05/09 00:13:22;;;;;;;3.15;2.95;;;;;;;11.93;41.78;100788.16;687776;28;45347;-66
2021/05/09 00:13:44;;;;;;;3.15;2.95;;;;;;;11.92;41.86;100781.91;690000;28;15763;-65
2021/05/09 00:14:06;;;;;;;3.20;3.00;;;;;;;11.92;42.01;100783.75;688811;28;43287;-66
2021/05/09 00:14:27;;;;;;;3.25;3.03;;;;;;;11.92;41.49;100787.31;687904;28;34216;-66
2021/05/09 00:14:48;;;;;;;3.58;3.28;;;;;;;11.94;41.84;100781.72;687985;28;21923;-65
2021/05/09 00:15:12;;;;;;;3.67;3.38;;;;;;;11.93;41.84;100780.91;688465;28;11721;-66
2021/05/09 00:15:33;;;;;;;3.60;3.38;;;;;;;11.93;41.88;100783.59;686187;28;67552;-65
2021/05/09 00:15:54;;;;;;;3.40;3.20;;;;;;;11.94;41.88;100785.25;689588;28;22438;-66
2021/05/09 00:16:16;;;;;;;3.30;3.10;;;;;;;11.94;41.74;100784.44;689347;28;1649;-65
2021/05/09 00:16:38;;;;;;;3.72;3.25;;;;;;;11.95;41.85;100786.97;689261;28;851;-66
2021/05/09 00:16:59;;;;;;;3.72;3.30;;;;;;;11.96;41.38;100782.38;688086;28;22735;-66
2021/05/09 00:17:20;;;;;;;3.30;3.10;;;;;;;11.95;41.48;100783.41;688898;28;1813;-66
2021/05/09 00:17:42;;;;;;;3.40;3.20;;;;;;;11.96;41.44;100782.38;688903;28;16101;-66
2021/05/09 00:18:03;;;;;;;3.20;3.00;;;;;;;11.96;41.82;100783.22;687721;28;36695;-66
2021/05/09 00:18:25;;;;;;;3.33;3.10;;;;;;;11.96;41.56;100777.81;688035;28;24358;-65
2021/05/09 00:18:46;;;;;;;3.20;3.00;;;;;;;11.96;41.95;100785.09;688359;28;23547;-65
2021/05/09 00:19:07;;;;;;;3.53;3.25;;;;;;;11.96;41.98;100779.66;688476;28;16071;-65
2021/05/09 00:19:28;;;;;;;3.75;3.45;;;;;;;11.95;41.89;100775.31;688206;28;22477;-64
2021/05/09 00:19:49;;;;;;;3.40;3.10;;;;;;;11.96;41.83;100779.66;687871;28;44410;-65
2021/05/09 00:20:11;;;;;;;3.35;3.05;;;;;;;11.95;41.75;100772.59;688748;28;22412;-66
2021/05/09 00:20:32;;;;;;;3.00;2.80;;;;;;;11.94;41.74;100777.16;687899;28;28778;-65
2021/05/09 00:20:55;;;;;;;3.35;3.15;;;;;;;11.95;42.15;100769.88;688722;28;16790;-66
2021/05/09 00:21:16;;;;;;;3.60;3.40;;;;;;;11.94;41.73;100784.44;687476;28;44110;-65
2021/05/09 00:21:37;;;;;;;3.28;3.08;;;;;;;11.94;41.72;100782.56;688497;28;21000;-65
2021/05/09 00:21:58;;;;;;;3.45;3.25;;;;;;;11.93;42.11;100777.31;687847;28;45271;-65
2021/05/09 00:22:19;;;;;;;3.45;3.15;;;;;;;11.93;42.29;100782.75;690642;28;23478;-65
2021/05/09 00:22:41;;;;;;;3.53;3.22;;;;;;;11.93;41.77;100785.44;690806;28;24084;-65
2021/05/09 00:23:02;;;;;;;3.55;3.25;;;;;;;11.93;41.94;100777.31;691391;28;22418;-66
2021/05/09 00:23:23;;;;;;;3.50;3.20;;;;;;;11.92;41.99;100778.34;691344;28;15371;-65
2021/05/09 00:23:44;;;;;;;3.40;3.10;;;;;;;11.92;42.23;100787.31;691486;28;13246;-65
2021/05/09 00:24:07;;;;;;;3.47;3.17;;;;;;;11.94;42.39;100787.13;689571;28;46317;-66
2021/05/09 00:24:28;;;;;;;3.53;3.22;;;;;;;11.93;41.99;100783.59;687568;28;37486;-65
2021/05/09 00:24:49;;;;;;;3.30;3.10;;;;;;;11.94;42.48;100785.25;689248;28;1952;-64
2021/05/09 00:25:11;;;;;;;3.40;3.10;;;;;;;11.95;42.17;100780.72;688587;28;23535;-65
2021/05/09 00:25:32;;;;;;;3.50;3.20;;;;;;;11.95;42.32;100788.84;687683;28;45388;-65
2021/05/09 00:25:53;;;;;;;3.50;3.30;;;;;;;11.95;42.27;100786.13;688509;28;25569;-64
2021/05/09 00:26:16;;;;;;;3.30;3.10;;;;;;;11.96;42.35;100788.66;688519;28;1623;-65
2021/05/09 00:26:37;;;;;;;3.58;3.30;;;;;;;11.96;42.33;100791.34;687364;28;46283;-65
2021/05/09 00:26:58;;;;;;;3.42;3.20;;;;;;;11.97;42.07;100786.78;688502;28;22419;-66
2021/05/09 00:27:19;;;;;;;3.55;3.28;;;;;;;11.95;41.92;100784.25;687573;28;35634;-65
2021/05/09 00:27:41;;;;;;;3.40;3.20;;;;;;;11.96;41.74;100790.50;688387;28;23235;-65
2021/05/09 00:28:02;;;;;;;3.58;3.30;;;;;;;11.95;41.37;100795.06;688446;28;23545;-66
2021/05/09 00:28:24;;;;;;;3.33;3.00;;;;;;;11.96;41.81;100790.50;687754;28;46126;-64
2021/05/09 00:28:45;;;;;;;3.50;3.20;;;;;;;11.96;41.82;100785.94;688356;28;22438;-65
2021/05/09 00:29:06;;;;;;;3.70;3.40;;;;;;;11.95;41.85;100791.53;687126;28;44399;-65
2021/05/09 00:29:27;;;;;;;3.35;3.15;;;;;;;11.95;41.46;100786.97;687595;28;22390;-64
2021/05/09 00:29:48;;;;;;;3.40;3.20;;;;;;;11.95;41.59;100788.84;688210;28;23525;-65
2021/05/09 00:30:11;;;;;;;3.10;2.90;;;;;;;11.97;41.77;100787.59;689094;28;855;-65
2021/05/09 00:30:32;;;;;;;3.60;3.30;;;;;;;11.96;41.90;100785.94;686642;28;67168;-65
2021/05/09 00:30:53;;;;;;;3.95;3.65;;;;;;;11.96;41.68;100790.50;688286;28;22406;-65
2021/05/09 00:31:15;;;;;;;3.33;3.13;;;;;;;11.95;41.67;100789.66;688374;28;22379;-65
2021/05/09 00:31:36;;;;;;;2.97;2.78;;;;;;;11.95;41.78;100792.38;688193;28;22504;-65
2021/05/09 00:31:57;;;;;;;3.42;3.22;;;;;;;11.94;41.87;100785.25;688523;28;23502;-65
2021/05/09 00:32:18;;;;;;;3.58;3.28;;;;;;;11.94;41.84;100793.38;687618;28;23552;-66
2021/05/09 00:32:39;;;;;;;3.50;3.17;;;;;;;11.94;42.32;100790.69;687408;28;46393;-65
2021/05/09 00:33:00;;;;;;;3.67;3.38;;;;;;;11.93;42.34;100788.16;688496;28;20216;-65
2021/05/09 00:33:22;;;;;;;3.33;3.08;;;;;;;11.94;42.42;100789.84;688073;28;21033;-65
2021/05/09 00:33:43;;;;;;;3.80;3.40;;;;;;;11.94;41.71;100782.56;688259;28;22472;-65
2021/05/09 00:34:04;;;;;;;3.60;3.30;;;;;;;11.94;42.07;100789.84;690854;28;21553;-66
2021/05/09 00:34:25;;;;;;;3.75;3.30;;;;;;;11.95;42.51;100797.78;690836;28;22364;-65
2021/05/09 00:34:46;;;;;;;4.50;3.50;;;;;;;11.95;42.33;100786.97;691264;28;21505;-66
2021/05/09 00:35:08;;;;;;;3.67;3.38;;;;;;;11.95;42.28;100792.38;690909;28;23400;-65
2021/05/09 00:35:30;;;;;;;3.33;3.13;;;;;;;11.95;41.97;100781.53;689486;28;69416;-64
2021/05/09 00:35:51;;;;;;;3.40;3.10;;;;;;;11.97;42.36;100797.59;690561;28;12719;-65
2021/05/09 00:36:13;;;;;;;3.55;3.25;;;;;;;11.97;42.05;100789.47;688896;28;898;-65
2021/05/09 00:36:34;;;;;;;3.42;3.22;;;;;;;11.96;41.77;100783.22;688301;28;21554;-64
2021/05/09 00:36:55;;;;;;;3.55;3.25;;;;;;;11.96;42.20;100785.94;688334;28;21651;-65
2021/05/09 00:37:16;;;;;;;3.88;3.33;;;;;;;11.94;42.14;100785.25;687576;28;23439;-64
2021/05/09 00:37:37;;;;;;;3.67;3.42;;;;;;;11.92;41.74;100781.91;687546;28;47288;-65
2021/05/09 00:37:58;;;;;;;3.67;3.38;;;;;;;11.94;42.21;100782.56;688736;28;23546;-65
2021/05/09 00:38:20;;;;;;;3.55;3.25;;;;;;;11.94;41.75;100779.03;689182;28;21269;-66
2021/05/09 00:38:41;;;;;;;4.97;3.63;;;;;;;11.93;41.97;100780.91;689379;28;22396;-65
2021/05/09 00:39:03;;;;;;;3.65;3.38;;;;;;;11.93;42.10;100782.75;689627;28;22344;-66
2021/05/09 00:39:24;;;;;;;3.30;3.10;;;;;;;11.94;42.09;100782.56;687821;28;47232;-65
2021/05/09 00:39:45;;;;;;;3.78;3.47;;;;;;;11.93;41.92;100780.91;689652;28;21562;-65
2021/05/09 00:40:08;;;;;;;3.60;3.30;;;;;;;11.93;42.29;100783.59;689770;28;22408;-64
2021/05/09 00:40:29;;;;;;;4.50;3.30;;;;;;;11.94;42.44;100784.44;685950;28;93236;-65
2021/05/09 00:40:53;;;;;;;4.45;3.45;;;;;;;11.93;42.45;100778.19;688708;28;22427;-66
2021/05/09 00:41:14;;;;;;;3.97;3.63;;;;;;;11.94;42.41;100781.72;686686;28;49923;-65
2021/05/09 00:41:37;;;;;;;3.80;3.50;;;;;;;11.94;42.41;100787.13;688601;28;4072;-65
2021/05/09 00:42:01;;;;;;;3.55;3.25;;;;;;;11.94;42.57;100781.72;688307;28;38173;-64
2021/05/09 00:42:22;;;;;;;3.60;3.30;;;;;;;11.95;42.07;100783.41;687981;28;27690;-65
2021/05/09 00:42:50;;;;;;;4.07;3.35;;;;;;;11.94;42.34;100784.44;686647;28;60861;-66
2021/05/09 00:43:11;;;;;;;3.45;3.17;;;;;;;11.94;42.63;100782.56;688527;28;16219;-66
2021/05/09 00:43:32;;;;;;;3.80;3.40;;;;;;;11.94;42.63;100787.97;688020;28;36621;-66
2021/05/09 00:43:53;;;;;;;3.55;3.28;;;;;;;11.93;42.14;100783.59;688598;28;22256;-66
2021/05/09 00:44:15;;;;;;;3.63;3.33;;;;;;;11.93;42.54;100780.91;688797;28;22413;-65
2021/05/09 00:44:36;;;;;;;3.60;3.30;;;;;;;11.94;42.05;100782.56;688294;28;21503;-65
2021/05/09 00:44:57;;;;;;;3.73;3.43;;;;;;;11.93;42.06;100782.75;688139;28;23537;-65
2021/05/09 00:45:19;;;;;;;3.50;3.25;;;;;;;11.93;42.54;100780.91;687355;28;46133;-66
2021/05/09 00:45:40;;;;;;;3.40;3.10;;;;;;;11.93;42.54;100780.91;689430;28;22289;-65
2021/05/09 00:46:01;;;;;;;3.40;3.10;;;;;;;11.93;42.53;100774.63;689362;28;23238;-65
2021/05/09 00:46:22;;;;;;;3.30;3.08;;;;;;;11.93;42.25;100775.47;689523;28;22834;-66
2021/05/09 00:46:43;;;;;;;3.33;3.13;;;;;;;11.93;42.60;100778.19;689461;28;30976;-65
2021/05/09 00:47:06;;;;;;;3.30;3.10;;;;;;;11.92;42.34;100773.78;689927;28;12053;-65
2021/05/09 00:47:28;;;;;;;3.60;3.30;;;;;;;11.92;42.75;100768.38;688258;28;42782;-65
2021/05/09 00:47:49;;;;;;;3.50;3.30;;;;;;;11.93;42.88;100772.78;687395;28;45268;-65
2021/05/09 00:48:11;;;;;;;4.35;3.67;;;;;;;11.93;42.80;100772.78;689553;28;21539;-65
2021/05/09 00:48:32;;;;;;;3.72;3.42;;;;;;;11.93;42.96;100778.19;689092;28;46349;-66
2021/05/09 00:48:55;;;;;;;3.30;3.00;;;;;;;11.93;42.64;100771.91;689822;28;22363;-66
2021/05/09 00:49:17;;;;;;;4.22;3.17;;;;;;;11.93;42.63;100769.22;687996;28;69399;-66
2021/05/09 00:49:39;;;;;;;3.60;3.30;;;;;;;11.93;42.48;100774.63;688298;28;45426;-65
2021/05/09 00:50:00;;;;;;;3.38;3.15;;;;;;;11.92;42.63;100771.09;689244;28;43659;-65
2021/05/09 00:50:21;;;;;;;3.60;3.30;;;;;;;11.92;42.66;100772.94;690430;28;22197;-66
2021/05/09 00:50:43;;;;;;;3.38;3.10;;;;;;;11.91;42.87;100774.78;690848;28;22483;-65
2021/05/09 00:51:04;;;;;;;3.47;3.17;;;;;;;11.91;42.61;100772.06;689859;28;37355;-66
2021/05/09 00:51:25;;;;;;;3.60;3.30;;;;;;;11.91;42.69;100777.47;690219;28;23458;-66
2021/05/09 00:51:47;;;;;;;3.50;3.30;;;;;;;11.92;42.68;100778.34;690506;28;23474;-65
2021/05/09 00:52:09;;;;;;;3.20;3.00;;;;;;;11.90;42.76;100773.94;689943;28;44367;-65
2021/05/09 00:52:33;;;;;;;3.50;3.30;;;;;;;11.92;43.09;100772.94;687426;28;45152;-65
2021/05/09 00:52:54;;;;;;;3.95;3.45;;;;;;;11.92;43.08;100775.63;686907;28;90697;-65
2021/05/09 00:53:20;;;;;;;3.60;3.20;;;;;;;11.93;42.99;100775.47;688515;28;45252;-65
2021/05/09 00:53:42;;;;;;;3.60;3.30;;;;;;;11.94;43.28;100777.16;686510;28;114952;-65
2021/05/09 00:54:05;;;;;;;3.65;3.35;;;;;;;11.95;42.94;100775.31;689303;28;35911;-65
2021/05/09 00:54:27;;;;;;;4.43;3.73;;;;;;;11.96;43.06;100771.53;687376;28;68363;-66
2021/05/09 00:54:52;;;;;;;4.03;3.63;;;;;;;11.95;43.41;100773.41;688421;28;46404;-65
2021/05/09 00:55:13;;;;;;;3.65;3.40;;;;;;;11.95;42.97;100776.13;683973;28;115315;-65
2021/05/09 00:55:36;;;;;;;3.70;3.40;;;;;;;11.95;42.83;100764.47;684471;28;42921;-65
2021/05/09 00:55:58;;;;;;;3.38;3.13;;;;;;;11.94;43.05;100765.50;682544;28;60534;-65
2021/05/09 00:56:20;;;;;;;3.55;3.25;;;;;;;11.94;43.04;100766.31;681940;28;46336;-66
2021/05/09 00:56:42;;;;;;;3.45;3.25;;;;;;;11.94;42.82;100773.59;682187;28;45207;-65
2021/05/09 00:57:05;;;;;;;3.35;3.15;;;;;;;11.92;43.20;100762.09;684058;28;33223;-65
2021/05/09 00:57:26;;;;;;;3.67;3.35;;;;;;;11.94;43.15;100762.78;686071;28;44397;-65
2021/05/09 00:57:49;;;;;;;3.72;3.42;;;;;;;11.92;42.85;100757.56;687014;28;1715;-65
2021/05/09 00:58:15;;;;;;;3.95;3.55;;;;;;;11.94;42.93;100766.31;688600;28;61760;-65
2021/05/09 00:58:37;;;;;;;3.80;3.50;;;;;;;11.96;42.96;100760.72;690734;28;24321;-66
2021/05/09 00:59:05;;;;;;;3.75;3.45;;;;;;;11.95;43.03;100759.06;687770;28;62117;-65
2021/05/09 00:59:28;;;;;;;3.65;3.38;;;;;;;11.94;43.04;100755.50;687934;28;46381;-66
2021/05/09 00:59:51;;;;;;;3.78;3.50;;;;;;;11.94;42.92;100769.03;687930;28;77780;-65
2021/05/09 01:00:14;;;;;;;3.20;3.00;;;;;;;11.94;42.65;100758.19;687191;28;84182;-66
2021/05/09 01:00:35;;;;;;;3.42;3.22;;;;;;;11.94;43.03;100757.38;688978;28;38414;-65
2021/05/09 01:00:57;;;;;;;3.80;3.50;;;;;;;11.94;43.05;100758.19;685281;28;70443;-65
2021/05/09 01:01:19;;;;;;;3.50;3.30;;;;;;;11.94;42.94;100749.25;684729;28;23476;-66
2021/05/09 01:01:42;;;;;;;3.80;3.40;;;;;;;11.93;42.49;100756.53;683099;28;9267;-66
2021/05/09 01:02:03;;;;;;;3.60;3.30;;;;;;;11.94;42.89;100751.94;678469;28;69423;-65
2021/05/09 01:02:24;;;;;;;3.53;3.22;;;;;;;11.93;43.15;100761.09;680614;29;16260;-65
2021/05/09 01:02:46;;;;;;;3.78;3.47;;;;;;;11.94;42.97;100751.94;680282;28;21434;-65
2021/05/09 01:03:08;;;;;;;3.65;3.35;;;;;;;11.94;42.84;100757.38;683116;28;44366;-66
2021/05/09 01:03:31;;;;;;;3.30;3.10;;;;;;;11.93;43.13;100756.53;683113;28;46241;-66
2021/05/09 01:03:53;;;;;;;3.55;3.25;;;;;;;11.93;43.00;100755.69;685560;28;45272;-66
2021/05/09 01:04:15;;;;;;;3.70;3.40;;;;;;;11.93;42.76;100761.09;685245;28;69498;-66
2021/05/09 01:04:36;;;;;;;3.50;3.20;;;;;;;11.94;42.66;100757.38;686048;28;46249;-66
2021/05/09 01:04:58;;;;;;;3.78;3.38;;;;;;;11.95;42.74;100759.06;685891;28;15233;-66
2021/05/09 01:05:20;;;;;;;3.75;3.45;;;;;;;11.92;42.57;100762.97;682653;28;40672;-67
2021/05/09 01:05:41;;;;;;;3.50;3.20;;;;;;;11.91;42.58;100761.25;681929;28;44315;-66
2021/05/09 01:06:03;;;;;;;3.88;3.58;;;;;;;11.90;43.01;100752.28;682164;28;23458;-66
2021/05/09 01:06:26;;;;;;;3.95;3.30;;;;;;;11.91;42.97;100755.81;679414;28;70403;-66
2021/05/09 01:06:48;;;;;;;3.47;3.17;;;;;;;11.91;42.91;100758.53;682695;28;44241;-66
2021/05/09 01:07:10;;;;;;;3.42;3.20;;;;;;;11.92;42.77;100759.41;683055;28;46405;-66
2021/05/09 01:07:33;;;;;;;5.03;3.55;;;;;;;11.89;42.67;100764.13;685629;28;46277;-66
2021/05/09 01:07:55;;;;;;;3.70;3.40;;;;;;;11.89;42.82;100756.00;684922;28;66870;-66
2021/05/09 01:08:16;;;;;;;3.40;3.20;;;;;;;11.89;43.07;100758.72;686973;28;44403;-66
2021/05/09 01:08:38;;;;;;;3.53;3.28;;;;;;;11.87;43.03;100758.06;687485;28;22419;-66
2021/05/09 01:09:00;;;;;;;3.45;3.20;;;;;;;11.89;42.72;100763.31;687389;28;43923;-66
2021/05/09 01:09:21;;;;;;;3.53;3.33;;;;;;;11.89;42.78;100755.19;687118;28;23481;-66
2021/05/09 01:09:43;;;;;;;3.42;3.22;;;;;;;11.88;43.20;100764.31;685831;28;44368;-66
2021/05/09 01:10:07;;;;;;;3.60;3.40;;;;;;;11.88;42.81;100754.34;688785;28;46089;-66
2021/05/09 01:10:29;;;;;;;3.53;3.28;;;;;;;11.88;43.17;100761.63;684329;28;92275;-66
2021/05/09 01:10:50;;;;;;;3.50;3.20;;;;;;;11.87;43.30;100760.78;685110;28;46307;-66
2021/05/09 01:11:12;;;;;;;3.45;3.25;;;;;;;11.87;43.35;100758.06;684067;28;21552;-65
2021/05/09 01:11:33;;;;;;;3.30;3.10;;;;;;;11.88;43.29;100759.75;683993;28;20121;-66
2021/05/09 01:11:55;;;;;;;3.63;3.33;;;;;;;11.89;43.39;100760.59;685616;28;22413;-66
2021/05/09 01:12:16;;;;;;;3.70;3.40;;;;;;;11.89;43.16;100760.59;685379;28;44414;-66
2021/05/09 01:12:38;;;;;;;3.45;3.25;;;;;;;11.88;43.37;100757.06;689899;28;43805;-67
2021/05/09 01:13:00;;;;;;;3.65;3.35;;;;;;;11.87;43.46;100755.38;688382;28;43046;-66
2021/05/09 01:13:23;;;;;;;3.55;3.25;;;;;;;11.88;43.28;100762.47;687933;28;66451;-66
2021/05/09 01:13:46;;;;;;;3.75;3.38;;;;;;;11.89;43.37;100756.00;690314;28;987;-66
2021/05/09 01:14:08;;;;;;;3.83;3.53;;;;;;;11.89;43.01;100757.91;687537;28;1012;-65
2021/05/09 01:14:29;;;;;;;3.50;3.30;;;;;;;11.89;43.31;100763.31;684459;28;46250;-67
2021/05/09 01:14:51;;;;;;;3.90;3.50;;;;;;;11.89;43.37;100758.72;684844;28;23609;-66
2021/05/09 01:15:13;;;;;;;4.20;3.35;;;;;;;11.89;43.12;100764.13;685525;28;23494;-66
2021/05/09 01:15:34;;;;;;;3.53;3.33;;;;;;;11.89;43.31;100760.59;685518;28;27108;-67
2021/05/09 01:15:56;;;;;;;4.03;3.60;;;;;;;11.89;43.34;100764.13;688383;28;46278;-67
2021/05/09 01:16:17;;;;;;;4.28;3.33;;;;;;;11.90;43.66;100756.88;686745;28;14671;-66
2021/05/09 01:16:38;;;;;;;3.47;3.17;;;;;;;11.91;43.41;100758.53;685678;28;17434;-66
2021/05/09 01:17:00;;;;;;;3.63;3.40;;;;;;;11.90;43.10;100763.13;688928;28;959;-66
2021/05/09 01:17:21;;;;;;;3.60;3.30;;;;;;;11.90;43.12;100756.88;687977;28;21513;-66
2021/05/09 01:17:42;;;;;;;3.38;3.15;;;;;;;11.90;43.54;100746.06;687913;28;23435;-66
2021/05/09 01:18:04;;;;;;;3.50;3.17;;;;;;;11.93;43.47;100751.13;687995;28;39545;-65
2021/05/09 01:18:32;;;;;;;4.75;3.38;;;;;;;11.92;43.49;100753.97;687813;28;59865;-66
2021/05/09 01:18:55;;;;;;;3.65;3.40;;;;;;;11.93;43.26;100753.84;688145;28;41805;-66
2021/05/09 01:19:16;;;;;;;3.70;3.40;;;;;;;11.93;43.27;100755.69;690325;28;44403;-66
2021/05/09 01:19:38;;;;;;;3.80;3.50;;;;;;;11.93;43.04;100755.69;690892;28;10932;-66
2021/05/09 01:20:00;;;;;;;3.60;3.40;;;;;;;11.91;42.99;100753.13;690561;28;23251;-66
2021/05/09 01:20:36;;;;;;;3.55;3.25;;;;;;;11.90;42.81;100751.47;687125;28;137897;-66
2021/05/09 01:20:57;;;;;;;4.32;3.25;;;;;;;11.90;43.28;100757.72;687068;28;126317;-66
2021/05/09 01:21:18;;;;;;;4.77;3.57;;;;;;;11.91;43.10;100753.13;685866;28;45472;-66
2021/05/09 01:21:40;;;;;;;3.78;3.40;;;;;;;11.90;43.23;100754.16;685733;28;46537;-66
2021/05/09 01:22:01;;;;;;;3.50;3.22;;;;;;;11.90;43.32;100752.28;686451;28;22342;-66
2021/05/09 01:22:22;;;;;;;3.50;3.20;;;;;;;11.90;43.28;100751.47;688782;28;21313;-66
2021/05/09 01:22:43;;;;;;;3.63;3.33;;;;;;;11.90;43.18;100759.59;689143;28;23961;-66
2021/05/09 01:23:05;;;;;;;3.50;3.30;;;;;;;11.89;43.02;100752.47;686142;28;46525;-68
2021/05/09 01:23:27;;;;;;;3.85;3.40;;;;;;;11.90;43.38;100757.72;686993;28;18881;-66
2021/05/09 01:23:49;;;;;;;4.28;3.20;;;;;;;11.90;43.61;100749.59;683524;28;46529;-66
2021/05/09 01:24:10;;;;;;;3.63;3.30;;;;;;;11.90;43.26;100752.28;683498;28;46368;-66
2021/05/09 01:24:32;;;;;;;3.60;3.33;;;;;;;11.90;43.14;100754.16;683833;28;22195;-67
2021/05/09 01:24:53;;;;;;;3.67;3.47;;;;;;;11.91;43.13;100755.81;682525;28;46418;-66
2021/05/09 01:25:15;;;;;;;3.95;3.65;;;;;;;11.90;43.14;100754.16;685046;28;44376;-66
2021/05/09 01:25:36;;;;;;;3.60;3.40;;;;;;;11.90;43.43;100757.72;687557;28;1007;-66
2021/05/09 01:25:58;;;;;;;3.42;3.22;;;;;;;11.89;43.37;100752.47;686022;28;36214;-66
2021/05/09 01:26:20;;;;;;;3.30;3.10;;;;;;;11.90;43.33;100755.00;687078;28;1852;-66
2021/05/09 01:26:41;;;;;;;3.45;3.20;;;;;;;11.90;43.59;100755.00;681485;28;44096;-66
2021/05/09 01:27:04;;;;;;;4.22;3.22;;;;;;;11.91;43.48;100750.41;682114;29;980;-67
2021/05/09 01:27:29;;;;;;;4.13;3.55;;;;;;;11.90;43.23;100757.72;682124;28;29584;-67
2021/05/09 01:27:50;;;;;;;3.70;3.28;;;;;;;11.91;43.09;100755.81;682747;28;102473;-67
2021/05/09 01:28:12;;;;;;;3.60;3.30;;;;;;;11.90;43.04;100755.00;683553;28;44064;-65
2021/05/09 01:28:34;;;;;;;3.83;3.53;;;;;;;11.89;43.24;100752.47;686335;28;22182;-66
2021/05/09 01:28:55;;;;;;;3.60;3.40;;;;;;;11.90;43.09;100746.06;687716;28;37654;-65
2021/05/09 01:29:16;;;;;;;3.40;3.20;;;;;;;11.89;43.39;100745.19;688144;28;23412;-65
2021/05/09 01:29:37;;;;;;;3.60;3.30;;;;;;;11.88;43.20;100743.53;684781;28;2219;-66
2021/05/09 01:29:59;;;;;;;3.30;3.10;;;;;;;11.88;43.29;100748.94;684534;28;46450;-66
2021/05/09 01:30:21;;;;;;;3.28;3.08;;;;;;;11.88;43.09;100748.09;684360;28;22490;-66
2021/05/09 01:30:42;;;;;;;3.53;3.33;;;;;;;11.88;43.48;100745.38;684866;28;47635;-66
2021/05/09 01:31:04;;;;;;;3.42;3.20;;;;;;;11.88;43.53;100745.38;685532;28;20885;-66
2021/05/09 01:31:25;;;;;;;3.88;3.58;;;;;;;11.87;43.66;100747.25;685624;28;10885;-66
2021/05/09 01:31:47;;;;;;;3.50;3.22;;;;;;;11.88;43.59;100748.94;684747;28;45193;-66
2021/05/09 01:32:09;;;;;;;3.88;3.10;;;;;;;11.89;43.57;100747.06;688988;28;46255;-66
2021/05/09 01:32:30;;;;;;;3.70;3.40;;;;;;;11.89;43.70;100749.78;690841;28;21558;-66
2021/05/09 01:32:51;;;;;;;3.63;3.33;;;;;;;11.89;43.60;100741.66;687963;28;22484;-66
2021/05/09 01:33:12;;;;;;;4.00;3.63;;;;;;;11.89;43.37;100745.19;687447;28;46408;-67
2021/05/09 01:33:41;;;;;;;3.70;3.40;;;;;;;11.89;42.97;100745.19;686515;28;61626;-66
2021/05/09 01:34:02;;;;;;;3.63;3.42;;;;;;;11.89;43.36;100739.78;687946;28;23379;-66
2021/05/09 01:34:25;;;;;;;3.50;3.30;;;;;;;11.89;43.60;100744.34;687600;28;20978;-66
2021/05/09 01:34:46;;;;;;;3.38;3.17;;;;;;;11.89;43.20;100747.91;686932;28;69777;-66
2021/05/09 01:35:10;;;;;;;3.20;3.00;;;;;;;11.88;43.24;100740.81;688474;28;21478;-67
2021/05/09 01:35:32;;;;;;;3.50;3.30;;;;;;;11.89;43.29;100745.19;686720;28;88748;-67
2021/05/09 01:35:54;;;;;;;3.75;3.47;;;;;;;11.90;42.91;100737.94;689316;28;30561;-66
2021/05/09 01:36:15;;;;;;;3.40;3.20;;;;;;;11.90;42.93;100737.94;688364;28;44627;-66
2021/05/09 01:36:36;;;;;;;3.22;3.03;;;;;;;11.89;43.20;100739.78;689653;28;23532;-65
2021/05/09 01:36:58;;;;;;;3.40;3.10;;;;;;;11.89;43.41;100745.19;687124;28;16023;-66
2021/05/09 01:37:19;;;;;;;3.58;3.28;;;;;;;11.90;43.33;100738.75;686979;28;22565;-67
2021/05/09 01:37:40;;;;;;;3.85;3.55;;;;;;;11.90;43.57;100735.22;686336;28;976;-66
2021/05/09 01:38:01;;;;;;;3.30;3.10;;;;;;;11.90;43.21;100737.94;685079;28;29615;-66
2021/05/09 01:38:23;;;;;;;3.25;3.05;;;;;;;11.90;43.54;100740.63;685754;28;21568;-67
2021/05/09 01:38:44;;;;;;;4.20;3.50;;;;;;;11.89;43.54;100747.91;685794;28;16827;-66
2021/05/09 01:39:06;;;;;;;3.92;3.33;;;;;;;11.89;43.13;100738.94;684617;28;46758;-66
2021/05/09 01:39:28;;;;;;;3.60;3.33;;;;;;;11.90;43.75;100746.06;683799;28;46504;-67
2021/05/09 01:39:49;;;;;;;3.30;3.10;;;;;;;11.88;43.28;100737.25;685469;28;22188;-66
2021/05/09 01:40:11;;;;;;;3.40;3.20;;;;;;;11.91;42.99;100736.88;684877;28;46303;-66
2021/05/09 01:40:32;;;;;;;3.22;3.03;;;;;;;11.90;43.42;100744.16;685203;28;44387;-66
2021/05/09 01:40:54;;;;;;;3.45;3.25;;;;;;;11.90;43.41;100737.94;686151;28;21478;-66
2021/05/09 01:41:16;;;;;;;3.70;3.40;;;;;;;11.90;43.42;100738.75;682559;28;45331;-66
2021/05/09 01:41:37;;;;;;;3.33;3.10;;;;;;;11.90;43.61;100733.34;686554;28;21540;-66
2021/05/09 01:42:00;;;;;;;3.20;3.00;;;;;;;11.90;43.48;100740.63;686853;28;23444;-66
2021/05/09 01:42:22;;;;;;;3.17;2.97;;;;;;;11.89;43.38;100739.78;683868;28;116131;-66
2021/05/09 01:42:52;;;;;;;3.60;3.40;;;;;;;11.91;43.73;100742.31;683555;28;61856;-66